Time;durP1;ratioP1;P1;durP2;ratioP2;P2;SDS_P1;SDS_P2;PMS_P1;PMS_P2;Temp;Humidity;BMP_temperature;BMP_pressure;BME280_temperature;BME280_humidity;BME280_pressure;Samples;Min_cycle;Max_cycle;Signal;HPM_P1;HPM_P2
2022/06/09 00:00:53;;;;;;;5.68;5.13;;;;;;;-142.25;100.00;58004.16;5010503;28;20052;-58
2022/06/09 00:03:35;;;;;;;5.97;4.63;;;;;;;-142.25;100.00;58004.16;5013101;28;20064;-58
2022/06/09 00:06:01;;;;;;;5.32;4.80;;;;;;;-142.25;100.00;58004.16;5015066;28;20037;-58
2022/06/09 00:08:29;;;;;;;5.07;4.68;;;;;;;-142.25;100.00;58004.16;5015251;28;20371;-58
2022/06/09 00:11:00;;;;;;;7.22;4.80;;;;;;;-142.25;100.00;58004.16;5014361;28;20037;-59
2022/06/09 00:13:26;;;;;;;6.95;4.53;;;;;;;-142.25;100.00;58004.16;4991252;28;20106;-58
2022/06/09 00:15:52;;;;;;;5.25;4.90;;;;;;;-142.25;100.00;58004.16;5012162;28;20174;-58
2022/06/09 00:18:18;;;;;;;5.75;4.95;;;;;;;-142.25;100.00;58004.16;5008012;28;20661;-58
2022/06/09 00:20:43;;;;;;;4.80;4.50;;;;;;;-142.25;100.00;58004.16;5009954;28;20064;-58
2022/06/09 00:23:10;;;;;;;4.80;4.50;;;;;;;-142.25;100.00;58004.16;5014021;28;20478;-59
2022/06/09 00:25:36;;;;;;;5.38;4.68;;;;;;;-142.25;100.00;58004.16;5010936;28;20476;-58
2022/06/09 00:28:02;;;;;;;6.18;4.57;;;;;;;-142.25;100.00;58004.16;5009108;28;20033;-58
2022/06/09 00:30:27;;;;;;;4.78;4.38;;;;;;;-142.25;100.00;58004.16;5014257;28;20195;-59
2022/06/09 00:32:53;;;;;;;5.47;4.40;;;;;;;-142.25;100.00;58004.16;5013319;28;20049;-58
2022/06/09 00:35:18;;;;;;;4.80;4.50;;;;;;;-142.25;100.00;58004.16;5009633;28;20410;-59
2022/06/09 00:37:44;;;;;;;5.07;4.57;;;;;;;-142.25;100.00;58004.16;5010406;28;20087;-58
2022/06/09 00:40:12;;;;;;;4.90;4.50;;;;;;;-142.25;100.00;58004.16;5013786;28;20041;-58
2022/06/09 00:42:38;;;;;;;5.15;4.65;;;;;;;-142.25;100.00;58004.16;5013362;28;20041;-57
2022/06/09 00:45:23;;;;;;;5.45;4.88;;;;;;;-142.25;100.00;58004.16;5009539;28;20030;-58
2022/06/09 00:47:49;;;;;;;4.53;4.18;;;;;;;-142.25;100.00;58004.16;5009734;28;20471;-59
2022/06/09 00:50:17;;;;;;;6.40;4.55;;;;;;;-142.25;100.00;58004.16;5012376;28;20440;-59
2022/06/09 00:52:47;;;;;;;5.45;4.60;;;;;;;-142.25;100.00;58004.16;5011377;28;20037;-59
2022/06/09 00:55:17;;;;;;;5.38;4.88;;;;;;;-142.25;100.00;58004.16;5008158;28;20026;-59
2022/06/09 00:57:50;;;;;;;6.45;4.80;;;;;;;-142.25;100.00;58004.16;5008609;28;20038;-59
2022/06/09 01:00:19;;;;;;;5.85;4.40;;;;;;;-142.25;100.00;58004.16;5010295;28;20070;-59
2022/06/09 01:02:45;;;;;;;4.75;4.40;;;;;;;-142.25;100.00;58004.16;5010961;28;20053;-59
2022/06/09 01:05:13;;;;;;;6.03;5.45;;;;;;;-142.25;100.00;58004.16;5008902;28;20076;-59
2022/06/09 01:07:43;;;;;;;4.93;4.45;;;;;;;-142.25;100.00;58004.16;5012653;28;20022;-59
2022/06/09 01:10:10;;;;;;;5.20;4.80;;;;;;;-142.25;100.00;58004.16;5013203;28;20463;-58
2022/06/09 01:12:42;;;;;;;4.43;4.13;;;;;;;-142.25;100.00;58004.16;5009855;28;20112;-59
2022/06/09 01:15:15;;;;;;;4.90;4.50;;;;;;;-142.25;100.00;58004.16;5009726;28;20029;-59
2022/06/09 01:18:17;;;;;;;11.90;5.22;;;;;;;-142.25;100.00;58004.16;5009281;28;20044;-59
2022/06/09 01:21:16;;;;;;;5.60;4.97;;;;;;;-142.25;100.00;58004.16;4969945;28;20471;-58
2022/06/09 01:24:25;;;;;;;5.15;4.63;;;;;;;-142.25;100.00;58004.16;5007657;28;20049;-59
2022/06/09 01:27:23;;;;;;;5.35;4.85;;;;;;;-142.25;100.00;58004.16;5012829;28;20029;-58
2022/06/09 01:30:08;;;;;;;5.90;4.82;;;;;;;-142.25;100.00;58004.16;4923294;29;20059;-59
2022/06/09 01:32:39;;;;;;;5.25;4.85;;;;;;;-142.25;100.00;58004.16;4919501;29;20038;-59
2022/06/09 01:35:23;;;;;;;5.07;4.38;;;;;;;-142.25;100.00;58004.16;4921839;29;20043;-59
2022/06/09 01:37:53;;;;;;;4.82;4.53;;;;;;;-142.25;100.00;58004.16;4923021;29;20044;-59
2022/06/09 01:40:19;;;;;;;4.70;4.35;;;;;;;-142.25;100.00;58004.16;4919790;29;20063;-59
2022/06/09 01:42:49;;;;;;;5.50;4.25;;;;;;;-142.25;100.00;58004.16;4919008;29;20444;-58
2022/06/09 01:45:17;;;;;;;4.95;4.18;;;;;;;-142.25;100.00;58004.16;4903501;29;20114;-59
2022/06/09 01:48:00;;;;;;;4.72;3.90;;;;;;;-142.25;100.00;58004.16;4923199;29;20050;-58
2022/06/09 01:50:43;;;;;;;6.13;3.80;;;;;;;-142.25;100.00;58004.16;4919895;29;20039;-58
2022/06/09 01:53:14;;;;;;;3.75;3.45;;;;;;;-142.25;100.00;58004.16;4920073;29;20520;-59
2022/06/09 01:55:46;;;;;;;3.50;3.22;;;;;;;-142.25;100.00;58004.16;4923992;29;20043;-58
2022/06/09 01:58:17;;;;;;;6.93;3.40;;;;;;;-142.25;100.00;58004.16;4922724;29;20628;-59
2022/06/09 02:00:43;;;;;;;4.03;3.60;;;;;;;-142.25;100.00;58004.16;4918567;29;20107;-58
2022/06/09 02:03:15;;;;;;;3.60;3.00;;;;;;;-142.25;100.00;58004.16;4920874;29;20418;-59
2022/06/09 02:05:47;;;;;;;3.35;3.15;;;;;;;-142.25;100.00;58004.16;4916411;28;20036;-60
2022/06/09 02:08:15;;;;;;;3.88;3.47;;;;;;;-142.25;100.00;58004.16;5012062;28;20026;-58
2022/06/09 02:10:47;;;;;;;3.30;3.00;;;;;;;-142.25;100.00;58004.16;5008176;28;20037;-59
2022/06/09 02:13:18;;;;;;;3.17;2.90;;;;;;;-142.25;100.00;58004.16;5013565;28;20175;-58
2022/06/09 02:15:49;;;;;;;3.00;2.80;;;;;;;-142.25;100.00;58004.16;5016145;28;20029;-59
2022/06/09 02:18:19;;;;;;;2.78;2.58;;;;;;;-142.25;100.00;58004.16;5013393;28;20064;-59
2022/06/09 02:20:50;;;;;;;2.75;2.55;;;;;;;-142.25;100.00;58004.16;5011637;28;20135;-58
2022/06/09 02:23:16;;;;;;;2.63;2.45;;;;;;;-142.25;100.00;58004.16;5015435;28;20514;-58
2022/06/09 02:25:41;;;;;;;3.25;2.70;;;;;;;-142.25;100.00;58004.16;5016976;28;20100;-58
2022/06/09 02:28:07;;;;;;;2.47;2.28;;;;;;;-142.25;100.00;58004.16;5011342;28;20395;-58
2022/06/09 02:30:34;;;;;;;2.70;2.35;;;;;;;-142.25;100.00;58004.16;5011515;28;20034;-58
2022/06/09 02:32:59;;;;;;;2.40;2.20;;;;;;;-142.25;100.00;58004.16;5015967;28;20040;-58
2022/06/09 02:35:25;;;;;;;2.53;2.33;;;;;;;-142.25;100.00;58004.16;5015597;28;20038;-58
2022/06/09 02:37:50;;;;;;;2.20;2.10;;;;;;;-142.25;100.00;58004.16;5010991;28;20037;-58
2022/06/09 02:40:16;;;;;;;1.98;1.88;;;;;;;-142.25;100.00;58004.16;5013452;28;20481;-58
2022/06/09 02:42:41;;;;;;;1.98;1.88;;;;;;;-142.25;100.00;58004.16;5016250;28;20099;-57
2022/06/09 02:45:07;;;;;;;1.88;1.67;;;;;;;-142.25;100.00;58004.16;5015299;28;20034;-58
2022/06/09 02:47:33;;;;;;;3.05;1.70;;;;;;;-142.25;100.00;58004.16;5010894;28;20036;-58
2022/06/09 02:49:58;;;;;;;1.50;1.50;;;;;;;-142.25;100.00;58004.16;5014432;28;20029;-59
2022/06/09 02:52:24;;;;;;;1.45;1.45;;;;;;;-142.25;100.00;58004.16;5015798;28;20064;-58
2022/06/09 02:54:49;;;;;;;1.88;1.75;;;;;;;-142.25;100.00;58004.16;5014040;28;20613;-58
2022/06/09 02:57:15;;;;;;;1.52;1.45;;;;;;;-142.25;100.00;58004.16;5011527;28;20044;-58
2022/06/09 02:59:40;;;;;;;1.63;1.40;;;;;;;-142.25;100.00;58004.16;5014787;28;20026;-58
2022/06/09 03:02:05;;;;;;;1.40;1.40;;;;;;;-142.25;100.00;58004.16;5015864;28;20399;-59
2022/06/09 03:04:31;;;;;;;2.67;1.35;;;;;;;-142.25;100.00;58004.16;5012428;28;20068;-59
2022/06/09 03:06:56;;;;;;;1.48;1.40;;;;;;;-142.25;100.00;58004.16;5010129;28;20069;-59
2022/06/09 03:09:22;;;;;;;1.42;1.40;;;;;;;-142.25;100.00;58004.16;5014146;28;20569;-59
2022/06/09 03:11:48;;;;;;;1.30;1.30;;;;;;;-142.25;100.00;58004.16;5016495;28;20457;-59
2022/06/09 03:14:14;;;;;;;1.40;1.30;;;;;;;-142.25;100.00;58004.16;5012912;28;20107;-59
2022/06/09 03:16:40;;;;;;;1.20;1.20;;;;;;;-142.25;100.00;58004.16;5010693;28;20072;-58
2022/06/09 03:19:05;;;;;;;1.17;1.17;;;;;;;-142.25;100.00;58004.16;5014007;28;20041;-58
2022/06/09 03:21:31;;;;;;;1.08;1.00;;;;;;;-142.25;100.00;58004.16;5014616;28;20030;-59
2022/06/09 03:23:58;;;;;;;1.63;1.30;;;;;;;-142.25;100.00;58004.16;5011899;28;20042;-58
2022/06/09 03:26:24;;;;;;;1.63;1.20;;;;;;;-142.25;100.00;58004.16;5010555;28;20034;-58
2022/06/09 03:28:51;;;;;;;1.08;1.08;;;;;;;-142.25;100.00;58004.16;5014585;28;20041;-58
2022/06/09 03:31:17;;;;;;;1.20;1.20;;;;;;;-142.25;100.00;58004.16;5016074;28;20063;-58
2022/06/09 03:33:43;;;;;;;1.30;1.27;;;;;;;-142.25;100.00;58004.16;5011532;28;20045;-57
2022/06/09 03:36:08;;;;;;;6.63;1.45;;;;;;;-142.25;100.00;58004.16;5011852;28;20057;-57
2022/06/09 03:38:34;;;;;;;1.67;1.58;;;;;;;-142.25;100.00;58004.16;5015294;28;20026;-57
2022/06/09 03:40:59;;;;;;;1.15;1.10;;;;;;;-142.25;100.00;58004.16;5014684;28;20036;-57
2022/06/09 03:43:25;;;;;;;1.10;1.10;;;;;;;-142.25;100.00;58004.16;5009806;28;20446;-58
2022/06/09 03:45:50;;;;;;;1.17;1.17;;;;;;;-142.25;100.00;58004.16;4996840;28;20447;-57
2022/06/09 03:48:16;;;;;;;1.88;1.77;;;;;;;-142.25;100.00;58004.16;5013921;28;20029;-58
2022/06/09 03:50:41;;;;;;;1.70;1.60;;;;;;;-142.25;100.00;58004.16;5005660;28;20034;-57
2022/06/09 03:53:06;;;;;;;1.42;1.40;;;;;;;-142.25;100.00;58004.16;5008953;28;20245;-57
2022/06/09 03:55:32;;;;;;;1.83;1.30;;;;;;;-142.25;100.00;58004.16;5012269;28;20105;-58
2022/06/09 03:57:57;;;;;;;1.35;1.08;;;;;;;-142.25;100.00;58004.16;5014085;28;20570;-57
2022/06/09 04:00:26;;;;;;;1.20;1.20;;;;;;;-142.25;100.00;58004.16;5013520;28;20572;-57
2022/06/09 04:02:51;;;;;;;1.58;1.20;;;;;;;-142.25;100.00;58004.16;5008922;28;20040;-57
2022/06/09 04:05:17;;;;;;;1.30;1.30;;;;;;;-142.25;100.00;58004.16;5012469;28;20026;-58
2022/06/09 04:07:43;;;;;;;1.23;1.23;;;;;;;-142.25;100.00;58004.16;5014958;28;20091;-57
2022/06/09 04:10:15;;;;;;;1.40;1.33;;;;;;;-142.25;100.00;58004.16;5014162;28;20398;-54
2022/06/09 04:12:40;;;;;;;1.95;1.38;;;;;;;-142.25;100.00;58004.16;5011108;28;20042;-56
2022/06/09 04:15:06;;;;;;;1.30;1.30;;;;;;;-142.25;100.00;58004.16;5014181;28;20107;-55
2022/06/09 04:17:31;;;;;;;1.50;1.40;;;;;;;-142.25;100.00;58004.16;5014587;28;20079;-56
2022/06/09 04:19:57;;;;;;;3.30;1.35;;;;;;;-142.25;100.00;58004.16;5012055;28;20100;-56
2022/06/09 04:22:22;;;;;;;1.15;1.15;;;;;;;-142.25;100.00;58004.16;5009426;28;20083;-55
2022/06/09 04:24:47;;;;;;;1.08;1.05;;;;;;;-142.25;100.00;58004.16;5013215;28;20447;-56
2022/06/09 04:27:13;;;;;;;1.67;1.00;;;;;;;-142.25;100.00;58004.16;5012841;28;20068;-56
2022/06/09 04:29:38;;;;;;;2.20;1.20;;;;;;;-142.25;100.00;58004.16;5011875;28;20037;-56
2022/06/09 04:32:04;;;;;;;1.90;1.30;;;;;;;-142.25;100.00;58004.16;5009214;28;20053;-57
2022/06/09 04:34:30;;;;;;;1.90;1.75;;;;;;;-142.25;100.00;58004.16;5014453;28;20034;-56
2022/06/09 04:36:55;;;;;;;1.10;1.10;;;;;;;-142.25;100.00;58004.16;5012582;28;20531;-62
2022/06/09 04:39:21;;;;;;;1.73;1.52;;;;;;;-142.25;100.00;58004.16;5010908;28;20498;-59
2022/06/09 04:41:46;;;;;;;1.50;1.42;;;;;;;-142.25;100.00;58004.16;5008775;28;20041;-56
2022/06/09 04:44:12;;;;;;;2.60;1.70;;;;;;;-142.25;100.00;58004.16;5013250;28;20442;-57
2022/06/09 04:46:37;;;;;;;1.15;1.13;;;;;;;-142.25;100.00;58004.16;5012536;28;20116;-58
2022/06/09 04:49:03;;;;;;;1.15;0.90;;;;;;;-142.25;100.00;58004.16;5009819;28;20581;-56
2022/06/09 04:51:29;;;;;;;1.63;1.42;;;;;;;-142.25;100.00;58004.16;5009734;28;20080;-58
2022/06/09 04:53:54;;;;;;;1.40;1.30;;;;;;;-142.25;100.00;58004.16;5012934;28;20062;-59
2022/06/09 04:56:22;;;;;;;1.30;1.20;;;;;;;-142.25;100.00;58004.16;5012612;28;20044;-60
2022/06/09 04:58:48;;;;;;;2.97;1.40;;;;;;;-142.25;100.00;58004.16;5009228;28;20034;-59
2022/06/09 05:01:23;;;;;;;3.92;1.40;;;;;;;-142.25;100.00;58004.16;5010292;28;20075;-58
2022/06/09 05:03:49;;;;;;;1.35;1.35;;;;;;;-142.25;100.00;58004.16;5013218;28;20037;-62
2022/06/09 05:06:19;;;;;;;1.30;1.20;;;;;;;-142.25;100.00;58004.16;5013378;28;20184;-59
2022/06/09 05:08:46;;;;;;;1.80;1.30;;;;;;;-142.25;100.00;58004.16;5009279;28;20164;-58
2022/06/09 05:11:11;;;;;;;2.10;1.88;;;;;;;-142.25;100.00;58004.16;5012312;28;20033;-58
2022/06/09 05:13:37;;;;;;;1.33;1.23;;;;;;;-142.25;100.00;58004.16;5013002;28;20055;-62
2022/06/09 05:16:02;;;;;;;2.30;1.60;;;;;;;-142.25;100.00;58004.16;5011760;28;20022;-58
2022/06/09 05:18:30;;;;;;;1.30;1.30;;;;;;;-142.25;100.00;58004.16;5007010;28;20052;-58
2022/06/09 05:20:57;;;;;;;1.33;1.20;;;;;;;-142.25;100.00;58004.16;5010685;28;20025;-58
2022/06/09 05:23:23;;;;;;;1.42;1.27;;;;;;;-142.25;100.00;58004.16;5012726;28;20514;-58
2022/06/09 05:25:51;;;;;;;2.17;1.52;;;;;;;-142.25;100.00;58004.16;5011247;28;20068;-61
2022/06/09 05:28:18;;;;;;;1.60;1.50;;;;;;;-142.25;100.00;58004.16;5008225;28;20039;-57
2022/06/09 05:30:45;;;;;;;2.28;1.38;;;;;;;-142.25;100.00;58004.16;5013161;28;20057;-58
2022/06/09 05:33:11;;;;;;;1.60;1.50;;;;;;;-142.25;100.00;58004.16;5011146;28;20041;-58
2022/06/09 05:35:36;;;;;;;2.22;1.27;;;;;;;-142.25;100.00;58004.16;5006983;28;20329;-57
2022/06/09 05:46:15;;;;;;;1.80;1.70;;;;;;;-142.25;100.00;58004.16;5008109;28;20072;-57
2022/06/09 05:48:42;;;;;;;4.97;1.33;;;;;;;-142.25;100.00;58004.16;5008800;28;20066;-60
2022/06/09 05:51:08;;;;;;;1.45;1.35;;;;;;;-142.25;100.00;58004.16;5013776;28;20039;-53
2022/06/09 05:53:35;;;;;;;1.55;1.45;;;;;;;-142.25;100.00;58004.16;5009816;28;20404;-56
2022/06/09 05:56:01;;;;;;;1.60;1.50;;;;;;;-142.25;100.00;58004.16;5008107;28;20033;-53
2022/06/09 05:58:26;;;;;;;4.05;1.40;;;;;;;-142.25;100.00;58004.16;5011907;28;20032;-50
2022/06/09 06:00:52;;;;;;;1.60;1.50;;;;;;;-142.25;100.00;58004.16;5012088;28;20510;-52
2022/06/09 06:03:18;;;;;;;1.45;1.35;;;;;;;-142.25;100.00;58004.16;5009823;28;20107;-54
2022/06/09 06:08:28;;;;;;;2.70;1.63;;;;;;;-142.25;100.00;58004.16;5012360;28;20100;-58
2022/06/09 06:10:53;;;;;;;1.83;1.33;;;;;;;-142.25;100.00;58004.16;5012621;28;20030;-53
2022/06/09 06:13:20;;;;;;;4.40;2.05;;;;;;;-142.25;100.00;58004.16;5007894;28;20029;-53
2022/06/09 06:15:45;;;;;;;4.78;1.50;;;;;;;-142.25;100.00;58004.16;5008788;28;20466;-54
2022/06/09 06:18:11;;;;;;;1.60;1.50;;;;;;;-142.25;100.00;58004.16;5012312;28;20041;-55
2022/06/09 06:20:37;;;;;;;1.90;1.80;;;;;;;-142.25;100.00;58004.16;5011364;28;20034;-54
2022/06/09 06:23:02;;;;;;;1.92;1.83;;;;;;;-142.25;100.00;58004.16;5007786;28;20084;-52
2022/06/09 06:25:28;;;;;;;1.85;1.75;;;;;;;-142.25;100.00;58004.16;5008610;28;20033;-55
2022/06/09 06:27:54;;;;;;;1.80;1.70;;;;;;;-142.25;100.00;58004.16;5013646;28;20167;-51
2022/06/09 06:30:20;;;;;;;2.97;1.52;;;;;;;-142.25;100.00;58004.16;5010564;28;20036;-56
2022/06/09 06:32:46;;;;;;;1.85;1.80;;;;;;;-142.25;100.00;58004.16;5007489;28;20041;-51
2022/06/09 06:35:12;;;;;;;1.88;1.77;;;;;;;-142.25;100.00;58004.16;5009360;28;20026;-51
2022/06/09 06:37:38;;;;;;;2.47;1.50;;;;;;;-142.25;100.00;58004.16;5012640;28;20492;-54
2022/06/09 06:40:04;;;;;;;1.25;1.25;;;;;;;-142.25;100.00;58004.16;5011486;28;20475;-54
2022/06/09 06:42:30;;;;;;;1.85;1.70;;;;;;;-142.25;100.00;58004.16;5006846;28;20380;-51
2022/06/09 06:44:56;;;;;;;1.58;1.52;;;;;;;-142.25;100.00;58004.16;5010771;28;20030;-52
2022/06/09 06:47:22;;;;;;;1.42;1.33;;;;;;;-142.25;100.00;58004.16;5013120;28;20048;-55
2022/06/09 06:49:47;;;;;;;2.83;1.85;;;;;;;-142.25;100.00;58004.16;5009935;28;20480;-55
2022/06/09 06:52:13;;;;;;;1.65;1.38;;;;;;;-142.25;100.00;58004.16;5006962;28;20124;-53
2022/06/09 06:54:38;;;;;;;2.13;1.52;;;;;;;-142.25;100.00;58004.16;5011082;28;20057;-55
2022/06/09 06:57:05;;;;;;;2.72;2.53;;;;;;;-142.25;100.00;58004.16;5012058;28;20140;-55
2022/06/09 06:59:32;;;;;;;1.85;1.20;;;;;;;-142.25;100.00;58004.16;5011430;28;20033;-53
2022/06/09 07:01:58;;;;;;;1.98;1.83;;;;;;;-142.25;100.00;58004.16;5010631;28;20037;-56
2022/06/09 07:04:24;;;;;;;1.73;1.63;;;;;;;-142.25;100.00;58004.16;5013715;28;20056;-54
2022/06/09 07:06:49;;;;;;;1.50;1.50;;;;;;;-142.25;100.00;58004.16;5015586;28;20068;-56
2022/06/09 07:09:15;;;;;;;2.67;1.70;;;;;;;-142.25;100.00;58004.16;5013302;28;20033;-53
2022/06/09 07:11:40;;;;;;;2.05;1.45;;;;;;;-142.25;100.00;58004.16;5010111;28;20557;-55
2022/06/09 07:14:06;;;;;;;1.38;1.33;;;;;;;-142.25;100.00;58004.16;5015794;28;20466;-57
2022/06/09 07:16:32;;;;;;;2.22;1.70;;;;;;;-142.25;100.00;58004.16;5016322;28;20026;-57
2022/06/09 07:18:57;;;;;;;1.80;1.70;;;;;;;-142.25;100.00;58004.16;5011220;28;20045;-57
2022/06/09 07:21:23;;;;;;;1.70;1.60;;;;;;;-142.25;100.00;58004.16;4995320;28;20168;-56
2022/06/09 07:23:48;;;;;;;1.92;1.70;;;;;;;-142.25;100.00;58004.16;5013164;28;20034;-57
2022/06/09 07:26:13;;;;;;;1.60;1.50;;;;;;;-142.25;100.00;58004.16;5005464;28;20033;-56
2022/06/09 07:28:39;;;;;;;1.20;1.20;;;;;;;-142.25;100.00;58004.16;5010451;28;20451;-56
2022/06/09 07:31:05;;;;;;;1.67;1.52;;;;;;;-142.25;100.00;58004.16;5011370;28;20026;-57
2022/06/09 07:33:33;;;;;;;1.42;1.33;;;;;;;-142.25;100.00;58004.16;5014023;28;20480;-56
2022/06/09 07:35:59;;;;;;;2.10;1.20;;;;;;;-142.25;100.00;58004.16;5014686;28;20041;-57
2022/06/09 07:38:26;;;;;;;1.58;1.52;;;;;;;-142.25;100.00;58004.16;5009124;28;20057;-58
2022/06/09 07:40:51;;;;;;;3.10;1.63;;;;;;;-142.25;100.00;58004.16;5008286;28;20430;-57
2022/06/09 07:43:19;;;;;;;2.13;1.60;;;;;;;-142.25;100.00;58004.16;5007445;28;20536;-56
2022/06/09 07:45:45;;;;;;;3.55;2.17;;;;;;;-142.25;100.00;58004.16;5008462;28;20044;-57
2022/06/09 07:48:11;;;;;;;1.45;1.38;;;;;;;-142.25;100.00;58004.16;4991938;28;20030;-58
2022/06/09 07:50:38;;;;;;;1.92;1.60;;;;;;;-142.25;100.00;58004.16;5011177;28;20061;-54
2022/06/09 07:53:05;;;;;;;1.60;1.50;;;;;;;-142.25;100.00;58004.16;5014028;28;20051;-58
2022/06/09 07:55:31;;;;;;;1.60;1.50;;;;;;;-142.25;100.00;58004.16;5013053;28;20041;-57
2022/06/09 07:57:56;;;;;;;1.52;1.50;;;;;;;-142.25;100.00;58004.16;5009818;28;20041;-56
2022/06/09 08:03:57;;;;;;;1.52;1.52;;;;;;;-142.25;100.00;58004.16;5014636;28;20180;-58
2022/06/09 08:06:22;;;;;;;1.40;1.30;;;;;;;-142.25;100.00;58004.16;5009564;28;20515;-57
2022/06/09 08:08:49;;;;;;;2.17;1.85;;;;;;;-142.25;100.00;58004.16;5010711;28;20037;-58
2022/06/09 08:11:14;;;;;;;1.60;1.50;;;;;;;-142.25;100.00;58004.16;5013497;28;20063;-57
2022/06/09 08:13:40;;;;;;;1.60;1.50;;;;;;;-142.25;100.00;58004.16;5014192;28;20030;-57
2022/06/09 08:16:07;;;;;;;1.33;1.30;;;;;;;-142.25;100.00;58004.16;5010048;28;20137;-57
2022/06/09 08:18:33;;;;;;;1.67;1.67;;;;;;;-142.25;100.00;58004.16;5011857;28;20578;-54
2022/06/09 08:20:59;;;;;;;1.70;1.50;;;;;;;-142.25;100.00;58004.16;5013971;28;20033;-56
2022/06/09 08:23:27;;;;;;;1.40;1.40;;;;;;;-142.25;100.00;58004.16;5011642;28;20034;-56
2022/06/09 08:25:55;;;;;;;1.42;1.42;;;;;;;-142.25;100.00;58004.16;5009763;28;20033;-58
2022/06/09 08:28:23;;;;;;;1.52;1.45;;;;;;;-142.25;100.00;58004.16;5011168;28;20384;-57
2022/06/09 08:30:53;;;;;;;1.20;1.20;;;;;;;-142.25;100.00;58004.16;5016372;28;20029;-57
2022/06/09 08:33:19;;;;;;;2.83;1.70;;;;;;;-142.25;100.00;58004.16;5010954;28;20157;-57
2022/06/09 08:35:45;;;;;;;1.60;1.60;;;;;;;-142.25;100.00;58004.16;5009154;28;20176;-56
2022/06/09 08:38:11;;;;;;;1.50;1.40;;;;;;;-142.25;100.00;58004.16;5011685;28;20026;-58
2022/06/09 08:40:59;;;;;;;1.80;1.60;;;;;;;-142.25;100.00;58004.16;5015243;28;20455;-57
2022/06/09 08:43:43;;;;;;;2.08;1.92;;;;;;;-142.25;100.00;58004.16;5010518;28;20095;-56
2022/06/09 08:46:49;;;;;;;1.63;1.52;;;;;;;-142.25;100.00;58004.16;5010164;28;20180;-58
2022/06/09 08:49:31;;;;;;;2.15;1.42;;;;;;;-142.25;100.00;58004.16;5011986;28;20045;-59
2022/06/09 08:52:12;;;;;;;1.95;1.85;;;;;;;-142.25;100.00;58004.16;5011891;28;20513;-60
2022/06/09 08:54:38;;;;;;;1.48;1.35;;;;;;;-142.25;100.00;58004.16;5008665;28;20030;-57
2022/06/09 08:57:15;;;;;;;1.45;1.35;;;;;;;-142.25;100.00;58004.16;5011177;28;20037;-54
2022/06/09 08:59:44;;;;;;;1.70;1.60;;;;;;;-142.25;100.00;58004.16;5014335;28;20030;-59
2022/06/09 09:02:20;;;;;;;1.40;1.33;;;;;;;-142.25;100.00;58004.16;4991835;28;20037;-57
2022/06/09 09:04:53;;;;;;;1.88;1.77;;;;;;;-142.25;100.00;58004.16;5010372;28;20057;-57
2022/06/09 09:07:26;;;;;;;1.67;1.58;;;;;;;-142.25;100.00;58004.16;5018494;28;20149;-56
2022/06/09 09:10:21;;;;;;;1.23;1.23;;;;;;;-142.25;100.00;58004.16;5013546;28;20482;-55
2022/06/09 09:13:00;;;;;;;1.25;1.25;;;;;;;-142.25;100.00;58004.16;5006343;28;20057;-56
2022/06/09 09:15:45;;;;;;;2.33;2.17;;;;;;;-142.25;100.00;58004.16;5011526;28;20033;-57
2022/06/09 09:18:30;;;;;;;1.80;1.70;;;;;;;-142.25;100.00;58004.16;5012998;28;20038;-58
2022/06/09 09:21:27;;;;;;;1.52;1.42;;;;;;;-142.25;100.00;58004.16;5009057;28;20037;-58
2022/06/09 09:24:14;;;;;;;1.80;1.70;;;;;;;-142.25;100.00;58004.16;5012638;28;20041;-52
2022/06/09 09:26:48;;;;;;;1.83;1.70;;;;;;;-142.25;100.00;58004.16;5015655;28;20429;-58
2022/06/09 09:29:33;;;;;;;1.83;1.73;;;;;;;-142.25;100.00;58004.16;5010709;28;20418;-57
2022/06/09 09:32:03;;;;;;;1.50;1.40;;;;;;;-142.25;100.00;58004.16;5006072;28;20403;-55
2022/06/09 09:34:40;;;;;;;1.65;1.58;;;;;;;-142.25;100.00;58004.16;5010577;28;20423;-56
2022/06/09 09:37:20;;;;;;;2.10;2.00;;;;;;;-142.25;100.00;58004.16;5011784;28;20488;-55
2022/06/09 09:40:21;;;;;;;1.80;1.70;;;;;;;-142.25;100.00;58004.16;5007573;28;20363;-55
2022/06/09 09:42:51;;;;;;;1.63;1.52;;;;;;;-142.25;100.00;58004.16;4995089;28;20046;-56
2022/06/09 09:45:30;;;;;;;2.80;2.05;;;;;;;-142.25;100.00;58004.16;5011993;28;20072;-54
2022/06/09 09:47:59;;;;;;;1.67;1.58;;;;;;;-142.25;100.00;58004.16;5010832;28;20140;-56
2022/06/09 09:50:43;;;;;;;1.60;1.50;;;;;;;-142.25;100.00;58004.16;5008629;28;20404;-56
2022/06/09 09:53:18;;;;;;;2.28;1.55;;;;;;;-142.25;100.00;58004.16;5011862;28;20030;-56
2022/06/09 09:55:58;;;;;;;2.42;1.70;;;;;;;-142.25;100.00;58004.16;5013199;28;20030;-54
2022/06/09 09:58:41;;;;;;;2.40;2.30;;;;;;;-142.25;100.00;58004.16;5009743;28;20128;-54
2022/06/09 10:01:30;;;;;;;1.98;1.88;;;;;;;-142.25;100.00;58004.16;5008846;28;20111;-53
2022/06/09 10:09:54;;;;;;;1.55;1.45;;;;;;;-142.25;100.00;58004.16;5009403;28;20504;-55
2022/06/09 10:12:22;;;;;;;1.60;1.50;;;;;;;-142.25;100.00;58004.16;5013475;28;20052;-58
2022/06/09 10:14:55;;;;;;;1.75;1.65;;;;;;;-142.25;100.00;58004.16;5014127;28;20360;-56
2022/06/09 10:17:44;;;;;;;1.80;1.70;;;;;;;-142.25;100.00;58004.16;5009011;28;20115;-56
2022/06/09 10:20:27;;;;;;;1.92;1.75;;;;;;;-142.25;100.00;58004.16;5008615;28;20041;-55
2022/06/09 10:23:10;;;;;;;1.45;1.45;;;;;;;-142.25;100.00;58004.16;5011530;28;20427;-57
2022/06/09 10:25:38;;;;;;;3.10;1.60;;;;;;;-142.25;100.00;58004.16;5011609;28;20034;-57
2022/06/09 10:28:10;;;;;;;2.13;2.00;;;;;;;-142.25;100.00;58004.16;5007833;28;20033;-58
2022/06/09 10:30:43;;;;;;;2.17;2.08;;;;;;;-142.25;100.00;58004.16;5009402;28;20029;-58
2022/06/09 10:33:29;;;;;;;2.00;1.90;;;;;;;-142.25;100.00;58004.16;5011864;28;20499;-58
2022/06/09 10:36:05;;;;;;;1.83;1.73;;;;;;;-142.25;100.00;58004.16;5013744;28;20046;-59
2022/06/09 10:38:33;;;;;;;1.90;1.80;;;;;;;-142.25;100.00;58004.16;5012117;28;20392;-60
2022/06/09 10:41:02;;;;;;;1.98;1.88;;;;;;;-142.25;100.00;58004.16;5016046;28;20041;-60
2022/06/09 10:43:42;;;;;;;1.75;1.65;;;;;;;-142.25;100.00;58004.16;5030173;28;20620;-58
2022/06/09 10:46:26;;;;;;;2.13;1.95;;;;;;;-142.25;100.00;58004.16;4993576;28;20037;-60
2022/06/09 10:55:18;;;;;;;1.90;1.80;;;;;;;-142.25;100.00;58004.16;5012457;28;20553;-60
2022/06/09 10:58:24;;;;;;;2.10;2.00;;;;;;;-142.25;100.00;58004.16;5009576;28;20602;-60
2022/06/09 11:00:51;;;;;;;1.80;1.70;;;;;;;-142.25;100.00;58004.16;5003367;28;20657;-60
2022/06/09 11:03:30;;;;;;;1.90;1.80;;;;;;;-142.25;100.00;58004.16;5013371;28;20140;-60
2022/06/09 11:06:23;;;;;;;2.08;1.98;;;;;;;-142.25;100.00;58004.16;5010093;28;20220;-61
2022/06/09 11:09:26;;;;;;;2.30;2.20;;;;;;;-142.25;100.00;58004.16;5013652;28;20353;-61
2022/06/09 11:12:50;;;;;;;2.17;2.00;;;;;;;-142.25;100.00;58004.16;5015466;28;20132;-60
2022/06/09 11:15:21;;;;;;;1.63;1.60;;;;;;;-142.25;100.00;58004.16;4901783;29;20051;-60
2022/06/09 11:17:56;;;;;;;2.03;1.92;;;;;;;-142.25;100.00;58004.16;4922040;29;20067;-60
2022/06/09 11:20:42;;;;;;;1.87;1.63;;;;;;;-142.25;100.00;58004.16;4922415;29;20378;-60
2022/06/09 11:23:26;;;;;;;1.73;1.73;;;;;;;-142.25;100.00;58004.16;4922531;29;20301;-60
2022/06/09 11:26:18;;;;;;;1.70;1.60;;;;;;;-142.25;100.00;58004.16;4911906;29;20045;-60
2022/06/09 11:29:07;;;;;;;2.10;2.00;;;;;;;-142.25;100.00;58004.16;4923410;29;20327;-60
2022/06/09 11:31:52;;;;;;;1.63;1.63;;;;;;;-142.25;100.00;58004.16;4921955;29;20128;-60
2022/06/09 11:34:32;;;;;;;2.47;2.20;;;;;;;-142.25;100.00;58004.16;4917511;29;20131;-60
2022/06/09 11:37:07;;;;;;;2.08;1.90;;;;;;;-142.25;100.00;58004.16;4922660;29;20866;-60
2022/06/09 11:40:13;;;;;;;2.03;1.92;;;;;;;-142.25;100.00;58004.16;4922447;29;20118;-60
2022/06/09 11:42:58;;;;;;;2.08;1.98;;;;;;;-142.25;100.00;58004.16;4918133;29;20549;-61
2022/06/09 11:45:27;;;;;;;2.28;1.80;;;;;;;-142.25;100.00;58004.16;4951573;28;20191;-61
2022/06/09 11:47:56;;;;;;;2.03;1.92;;;;;;;-142.25;100.00;58004.16;5016381;28;20042;-61
2022/06/09 11:50:28;;;;;;;2.78;1.98;;;;;;;-142.25;100.00;58004.16;5013379;28;20029;-61
2022/06/09 11:52:57;;;;;;;1.95;1.85;;;;;;;-142.25;100.00;58004.16;5010172;28;20520;-59